sensor_id;sensor_type;location;lat;lon;timestamp;temperature;humidity
63219;DHT22;49320;52.512;13.448;2023-04-24T00:01:21;15.70;62.90
63219;DHT22;49320;52.512;13.448;2023-04-24T00:03:47;15.60;62.90
63219;DHT22;49320;52.512;13.448;2023-04-24T00:06:14;15.60;63.10
63219;DHT22;49320;52.512;13.448;2023-04-24T00:08:43;15.60;63.40
63219;DHT22;49320;52.512;13.448;2023-04-24T00:11:10;15.60;63.40
63219;DHT22;49320;52.512;13.448;2023-04-24T00:13:37;15.60;63.40
63219;DHT22;49320;52.512;13.448;2023-04-24T00:16:04;15.60;63.80
63219;DHT22;49320;52.512;13.448;2023-04-24T00:18:32;15.50;63.60
63219;DHT22;49320;52.512;13.448;2023-04-24T00:20:59;15.50;63.80
63219;DHT22;49320;52.512;13.448;2023-04-24T00:23:26;15.50;63.90
63219;DHT22;49320;52.512;13.448;2023-04-24T00:25:53;15.40;64.00
63219;DHT22;49320;52.512;13.448;2023-04-24T00:28:20;15.50;64.20
63219;DHT22;49320;52.512;13.448;2023-04-24T00:30:47;15.50;64.30
63219;DHT22;49320;52.512;13.448;2023-04-24T00:33:13;15.60;64.30
63219;DHT22;49320;52.512;13.448;2023-04-24T00:35:41;15.50;64.50
63219;DHT22;49320;52.512;13.448;2023-04-24T00:38:07;15.40;64.40
63219;DHT22;49320;52.512;13.448;2023-04-24T00:40:34;15.40;64.50
63219;DHT22;49320;52.512;13.448;2023-04-24T00:43:01;15.40;64.60
63219;DHT22;49320;52.512;13.448;2023-04-24T00:45:28;15.40;64.70
63219;DHT22;49320;52.512;13.448;2023-04-24T00:47:55;15.40;65.00
63219;DHT22;49320;52.512;13.448;2023-04-24T00:50:24;15.40;65.10
63219;DHT22;49320;52.512;13.448;2023-04-24T00:52:51;15.30;65.40
63219;DHT22;49320;52.512;13.448;2023-04-24T00:55:19;15.30;65.40
63219;DHT22;49320;52.512;13.448;2023-04-24T00:57:46;15.30;65.30
63219;DHT22;49320;52.512;13.448;2023-04-24T01:00:16;15.30;65.60
63219;DHT22;49320;52.512;13.448;2023-04-24T01:02:44;15.30;65.90
63219;DHT22;49320;52.512;13.448;2023-04-24T01:05:15;15.30;65.80
63219;DHT22;49320;52.512;13.448;2023-04-24T01:07:45;15.20;66.30
63219;DHT22;49320;52.512;13.448;2023-04-24T01:10:15;15.20;66.20
63219;DHT22;49320;52.512;13.448;2023-04-24T01:12:44;15.20;66.20
63219;DHT22;49320;52.512;13.448;2023-04-24T01:15:10;15.20;67.00
63219;DHT22;49320;52.512;13.448;2023-04-24T01:17:37;15.20;66.20
63219;DHT22;49320;52.512;13.448;2023-04-24T01:20:06;15.10;66.30
63219;DHT22;49320;52.512;13.448;2023-04-24T01:22:33;15.20;66.60
63219;DHT22;49320;52.512;13.448;2023-04-24T01:25:02;15.10;66.60
63219;DHT22;49320;52.512;13.448;2023-04-24T01:27:29;15.10;66.80
63219;DHT22;49320;52.512;13.448;2023-04-24T01:29:56;15.10;66.80
63219;DHT22;49320;52.512;13.448;2023-04-24T01:32:24;15.10;67.10
63219;DHT22;49320;52.512;13.448;2023-04-24T01:34:52;15.20;67.40
63219;DHT22;49320;52.512;13.448;2023-04-24T01:37:19;15.10;67.40
63219;DHT22;49320;52.512;13.448;2023-04-24T01:39:46;15.10;67.50
63219;DHT22;49320;52.512;13.448;2023-04-24T01:42:13;13.00;66.10
63219;DHT22;49320;52.512;13.448;2023-04-24T01:44:41;15.10;67.50
63219;DHT22;49320;52.512;13.448;2023-04-24T01:47:08;15.10;67.70
63219;DHT22;49320;52.512;13.448;2023-04-24T01:49:37;15.10;67.70
63219;DHT22;49320;52.512;13.448;2023-04-24T01:52:04;15.10;67.80
63219;DHT22;49320;52.512;13.448;2023-04-24T01:54:33;15.10;67.90
63219;DHT22;49320;52.512;13.448;2023-04-24T01:56:59;15.00;67.90
63219;DHT22;49320;52.512;13.448;2023-04-24T01:59:28;15.10;68.00
63219;DHT22;49320;52.512;13.448;2023-04-24T02:01:56;15.10;68.40
63219;DHT22;49320;52.512;13.448;2023-04-24T02:04:23;15.00;68.30
63219;DHT22;49320;52.512;13.448;2023-04-24T02:06:50;15.10;68.50
63219;DHT22;49320;52.512;13.448;2023-04-24T02:09:17;15.00;67.90
63219;DHT22;49320;52.512;13.448;2023-04-24T02:11:43;15.10;68.60
63219;DHT22;49320;52.512;13.448;2023-04-24T02:14:10;15.00;70.00
63219;DHT22;49320;52.512;13.448;2023-04-24T02:16:37;15.00;68.90
63219;DHT22;49320;52.512;13.448;2023-04-24T02:19:04;15.00;69.00
63219;DHT22;49320;52.512;13.448;2023-04-24T02:21:31;15.00;69.00
63219;DHT22;49320;52.512;13.448;2023-04-24T02:23:58;15.00;69.20
63219;DHT22;49320;52.512;13.448;2023-04-24T02:26:25;15.00;68.80
63219;DHT22;49320;52.512;13.448;2023-04-24T02:28:51;15.00;69.50
63219;DHT22;49320;52.512;13.448;2023-04-24T02:31:18;14.90;69.50
63219;DHT22;49320;52.512;13.448;2023-04-24T02:33:45;15.00;69.60
63219;DHT22;49320;52.512;13.448;2023-04-24T02:36:12;15.00;69.80
63219;DHT22;49320;52.512;13.448;2023-04-24T02:38:39;15.00;70.00
63219;DHT22;49320;52.512;13.448;2023-04-24T02:41:06;15.00;70.20
63219;DHT22;49320;52.512;13.448;2023-04-24T02:43:33;16.30;71.00
63219;DHT22;49320;52.512;13.448;2023-04-24T02:46:00;15.00;70.40
63219;DHT22;49320;52.512;13.448;2023-04-24T02:48:27;15.00;70.60
63219;DHT22;49320;52.512;13.448;2023-04-24T02:50:54;15.00;70.60
63219;DHT22;49320;52.512;13.448;2023-04-24T02:53:21;14.90;70.60
63219;DHT22;49320;52.512;13.448;2023-04-24T02:55:49;15.00;70.50
63219;DHT22;49320;52.512;13.448;2023-04-24T02:58:16;14.90;70.60
63219;DHT22;49320;52.512;13.448;2023-04-24T03:00:43;15.00;70.70
63219;DHT22;49320;52.512;13.448;2023-04-24T03:03:10;15.00;70.80
63219;DHT22;49320;52.512;13.448;2023-04-24T03:05:37;15.10;70.90
63219;DHT22;49320;52.512;13.448;2023-04-24T03:08:04;15.10;71.00
63219;DHT22;49320;52.512;13.448;2023-04-24T03:10:31;15.10;71.10
63219;DHT22;49320;52.512;13.448;2023-04-24T03:12:58;15.10;70.70
63219;DHT22;49320;52.512;13.448;2023-04-24T03:15:25;15.10;70.60
63219;DHT22;49320;52.512;13.448;2023-04-24T03:17:52;15.10;70.50
63219;DHT22;49320;52.512;13.448;2023-04-24T03:20:22;15.20;71.30
63219;DHT22;49320;52.512;13.448;2023-04-24T03:22:49;15.20;71.30
63219;DHT22;49320;52.512;13.448;2023-04-24T03:25:16;15.20;71.40
63219;DHT22;49320;52.512;13.448;2023-04-24T03:27:43;15.20;71.50
63219;DHT22;49320;52.512;13.448;2023-04-24T03:30:09;15.30;71.60
63219;DHT22;49320;52.512;13.448;2023-04-24T03:32:36;15.30;71.70
63219;DHT22;49320;52.512;13.448;2023-04-24T03:35:07;15.30;71.60
63219;DHT22;49320;52.512;13.448;2023-04-24T03:37:34;15.30;71.80
63219;DHT22;49320;52.512;13.448;2023-04-24T03:40:02;15.30;71.50
63219;DHT22;49320;52.512;13.448;2023-04-24T03:42:29;15.40;71.70
63219;DHT22;49320;52.512;13.448;2023-04-24T03:44:56;15.40;71.20
63219;DHT22;49320;52.512;13.448;2023-04-24T03:49:50;15.50;71.10
63219;DHT22;49320;52.512;13.448;2023-04-24T03:52:16;15.50;71.80
63219;DHT22;49320;52.512;13.448;2023-04-24T03:54:43;15.60;71.80
63219;DHT22;49320;52.512;13.448;2023-04-24T03:57:10;15.60;71.80
63219;DHT22;49320;52.512;13.448;2023-04-24T03:59:37;15.60;71.70
63219;DHT22;49320;52.512;13.448;2023-04-24T04:02:03;15.70;71.80
63219;DHT22;49320;52.512;13.448;2023-04-24T04:04:31;15.70;71.70
63219;DHT22;49320;52.512;13.448;2023-04-24T04:06:58;15.70;72.40
63219;DHT22;49320;52.512;13.448;2023-04-24T04:09:27;15.70;71.60
63219;DHT22;49320;52.512;13.448;2023-04-24T04:11:54;16.40;72.00
63219;DHT22;49320;52.512;13.448;2023-04-24T04:16:49;15.80;70.80
63219;DHT22;49320;52.512;13.448;2023-04-24T04:21:47;15.90;70.60
63219;DHT22;49320;52.512;13.448;2023-04-24T04:24:19;16.40;71.50
63219;DHT22;49320;52.512;13.448;2023-04-24T04:26:50;15.90;71.30
63219;DHT22;49320;52.512;13.448;2023-04-24T04:29:18;16.00;71.20
63219;DHT22;49320;52.512;13.448;2023-04-24T04:31:45;16.00;71.10
63219;DHT22;49320;52.512;13.448;2023-04-24T04:34:12;16.00;71.00
63219;DHT22;49320;52.512;13.448;2023-04-24T04:36:41;16.00;71.00
63219;DHT22;49320;52.512;13.448;2023-04-24T04:39:08;16.00;71.10
63219;DHT22;49320;52.512;13.448;2023-04-24T04:41:35;16.10;71.00
63219;DHT22;49320;52.512;13.448;2023-04-24T04:44:02;16.10;70.90
63219;DHT22;49320;52.512;13.448;2023-04-24T04:46:31;16.10;70.90
63219;DHT22;49320;52.512;13.448;2023-04-24T04:49:01;16.10;71.00
63219;DHT22;49320;52.512;13.448;2023-04-24T04:51:28;16.10;71.30
63219;DHT22;49320;52.512;13.448;2023-04-24T04:53:55;16.10;70.90
63219;DHT22;49320;52.512;13.448;2023-04-24T04:56:22;16.20;70.90
63219;DHT22;49320;52.512;13.448;2023-04-24T04:58:49;16.20;70.90
63219;DHT22;49320;52.512;13.448;2023-04-24T05:03:43;16.20;70.30
63219;DHT22;49320;52.512;13.448;2023-04-24T05:08:38;16.30;70.20
63219;DHT22;49320;52.512;13.448;2023-04-24T05:11:05;16.30;70.70
63219;DHT22;49320;52.512;13.448;2023-04-24T05:13:32;16.40;70.80
63219;DHT22;49320;52.512;13.448;2023-04-24T05:16:06;16.40;70.70
63219;DHT22;49320;52.512;13.448;2023-04-24T05:18:33;16.40;71.20
63219;DHT22;49320;52.512;13.448;2023-04-24T05:21:00;16.50;70.30
63219;DHT22;49320;52.512;13.448;2023-04-24T05:23:27;16.40;70.20
63219;DHT22;49320;52.512;13.448;2023-04-24T05:25:54;16.50;70.20
63219;DHT22;49320;52.512;13.448;2023-04-24T05:28:21;16.50;70.20
63219;DHT22;49320;52.512;13.448;2023-04-24T05:30:48;16.50;70.20
63219;DHT22;49320;52.512;13.448;2023-04-24T05:33:15;16.40;70.10
63219;DHT22;49320;52.512;13.448;2023-04-24T05:35:42;16.60;70.00
63219;DHT22;49320;52.512;13.448;2023-04-24T05:38:13;16.70;70.00
63219;DHT22;49320;52.512;13.448;2023-04-24T05:40:44;16.70;69.40
63219;DHT22;49320;52.512;13.448;2023-04-24T05:43:11;16.80;69.90
63219;DHT22;49320;52.512;13.448;2023-04-24T05:45:38;16.90;69.80
63219;DHT22;49320;52.512;13.448;2023-04-24T05:48:05;16.80;69.50
63219;DHT22;49320;52.512;13.448;2023-04-24T05:50:32;16.90;69.50
63219;DHT22;49320;52.512;13.448;2023-04-24T05:53:02;17.00;69.20
63219;DHT22;49320;52.512;13.448;2023-04-24T05:55:31;17.00;68.90
63219;DHT22;49320;52.512;13.448;2023-04-24T05:57:58;17.10;68.70
63219;DHT22;49320;52.512;13.448;2023-04-24T06:00:25;17.10;68.50
63219;DHT22;49320;52.512;13.448;2023-04-24T06:05:20;17.20;67.50
63219;DHT22;49320;52.512;13.448;2023-04-24T06:07:48;17.20;68.10
63219;DHT22;49320;52.512;13.448;2023-04-24T06:10:15;17.30;67.30
63219;DHT22;49320;52.512;13.448;2023-04-24T06:12:42;17.30;67.80
63219;DHT22;49320;52.512;13.448;2023-04-24T06:15:09;17.30;67.10
63219;DHT22;49320;52.512;13.448;2023-04-24T06:17:36;17.40;67.80
63219;DHT22;49320;52.512;13.448;2023-04-24T06:20:03;17.40;67.60
63219;DHT22;49320;52.512;13.448;2023-04-24T06:22:32;17.50;67.60
63219;DHT22;49320;52.512;13.448;2023-04-24T06:24:59;17.60;67.30
63219;DHT22;49320;52.512;13.448;2023-04-24T06:27:27;17.60;66.90
63219;DHT22;49320;52.512;13.448;2023-04-24T06:29:53;17.60;66.80
63219;DHT22;49320;52.512;13.448;2023-04-24T06:32:24;17.70;66.60
63219;DHT22;49320;52.512;13.448;2023-04-24T06:34:52;17.70;66.30
63219;DHT22;49320;52.512;13.448;2023-04-24T06:37:20;17.70;66.10
63219;DHT22;49320;52.512;13.448;2023-04-24T06:39:47;17.70;66.00
63219;DHT22;49320;52.512;13.448;2023-04-24T06:42:14;17.70;65.90
63219;DHT22;49320;52.512;13.448;2023-04-24T06:47:11;17.80;65.10
63219;DHT22;49320;52.512;13.448;2023-04-24T06:49:40;17.80;65.50
63219;DHT22;49320;52.512;13.448;2023-04-24T06:52:07;17.90;65.40
63219;DHT22;49320;52.512;13.448;2023-04-24T06:54:34;17.90;65.40
63219;DHT22;49320;52.512;13.448;2023-04-24T06:57:01;17.90;65.40
63219;DHT22;49320;52.512;13.448;2023-04-24T06:59:30;18.00;65.40
63219;DHT22;49320;52.512;13.448;2023-04-24T07:01:57;18.10;64.30
63219;DHT22;49320;52.512;13.448;2023-04-24T07:04:24;18.10;65.00
63219;DHT22;49320;52.512;13.448;2023-04-24T07:06:52;18.30;64.90
63219;DHT22;49320;52.512;13.448;2023-04-24T07:09:22;18.40;64.40
63219;DHT22;49320;52.512;13.448;2023-04-24T07:11:51;18.50;64.00
63219;DHT22;49320;52.512;13.448;2023-04-24T07:14:18;18.60;63.40
63219;DHT22;49320;52.512;13.448;2023-04-24T07:16:45;18.70;63.40
63219;DHT22;49320;52.512;13.448;2023-04-24T07:19:13;18.80;63.10
63219;DHT22;49320;52.512;13.448;2023-04-24T07:21:41;18.90;62.80
63219;DHT22;49320;52.512;13.448;2023-04-24T07:24:08;18.90;62.40
63219;DHT22;49320;52.512;13.448;2023-04-24T07:26:39;19.00;62.30
63219;DHT22;49320;52.512;13.448;2023-04-24T07:29:07;19.00;61.80
63219;DHT22;49320;52.512;13.448;2023-04-24T07:31:34;19.00;61.50
63219;DHT22;49320;52.512;13.448;2023-04-24T07:34:01;19.10;61.10
63219;DHT22;49320;52.512;13.448;2023-04-24T07:36:28;19.10;60.40
63219;DHT22;49320;52.512;13.448;2023-04-24T07:38:55;19.20;60.40
63219;DHT22;49320;52.512;13.448;2023-04-24T07:41:23;19.20;60.20
63219;DHT22;49320;52.512;13.448;2023-04-24T07:43:51;19.30;60.10
63219;DHT22;49320;52.512;13.448;2023-04-24T07:46:19;19.40;59.50
63219;DHT22;49320;52.512;13.448;2023-04-24T07:48:46;19.50;59.00
63219;DHT22;49320;52.512;13.448;2023-04-24T07:51:24;19.50;58.90
63219;DHT22;49320;52.512;13.448;2023-04-24T07:53:53;19.60;58.90
63219;DHT22;49320;52.512;13.448;2023-04-24T07:56:23;19.50;58.50
63219;DHT22;49320;52.512;13.448;2023-04-24T07:58:53;19.50;58.10
63219;DHT22;49320;52.512;13.448;2023-04-24T08:01:20;19.50;58.10
63219;DHT22;49320;52.512;13.448;2023-04-24T08:03:46;19.40;58.00
63219;DHT22;49320;52.512;13.448;2023-04-24T08:06:14;19.50;57.80
63219;DHT22;49320;52.512;13.448;2023-04-24T08:08:41;19.50;58.10
63219;DHT22;49320;52.512;13.448;2023-04-24T08:15:14;19.60;57.00
63219;DHT22;49320;52.512;13.448;2023-04-24T08:17:41;19.60;57.00
63219;DHT22;49320;52.512;13.448;2023-04-24T08:20:09;19.60;57.00
63219;DHT22;49320;52.512;13.448;2023-04-24T08:22:41;19.60;57.00
63219;DHT22;49320;52.512;13.448;2023-04-24T08:25:10;19.70;56.80
63219;DHT22;49320;52.512;13.448;2023-04-24T08:27:37;19.70;56.70
63219;DHT22;49320;52.512;13.448;2023-04-24T08:30:05;19.80;54.80
63219;DHT22;49320;52.512;13.448;2023-04-24T08:32:33;19.80;56.20
63219;DHT22;49320;52.512;13.448;2023-04-24T08:35:00;19.80;56.20
63219;DHT22;49320;52.512;13.448;2023-04-24T08:37:27;19.90;56.00
63219;DHT22;49320;52.512;13.448;2023-04-24T08:39:54;20.10;56.30
63219;DHT22;49320;52.512;13.448;2023-04-24T08:42:21;20.10;56.40
63219;DHT22;49320;52.512;13.448;2023-04-24T08:44:49;20.50;56.60
63219;DHT22;49320;52.512;13.448;2023-04-24T08:47:16;20.40;56.30
63219;DHT22;49320;52.512;13.448;2023-04-24T08:49:48;20.50;55.90
63219;DHT22;49320;52.512;13.448;2023-04-24T08:52:16;20.70;55.80
63219;DHT22;49320;52.512;13.448;2023-04-24T08:54:45;20.80;55.60
63219;DHT22;49320;52.512;13.448;2023-04-24T08:57:14;20.90;55.70
63219;DHT22;49320;52.512;13.448;2023-04-24T08:59:42;21.10;55.60
63219;DHT22;49320;52.512;13.448;2023-04-24T09:02:10;21.30;55.50
63219;DHT22;49320;52.512;13.448;2023-04-24T09:04:38;21.20;55.30
63219;DHT22;49320;52.512;13.448;2023-04-24T09:07:08;21.40;54.60
63219;DHT22;49320;52.512;13.448;2023-04-24T09:09:38;21.50;54.30
63219;DHT22;49320;52.512;13.448;2023-04-24T09:12:05;21.50;53.80
63219;DHT22;49320;52.512;13.448;2023-04-24T09:14:33;21.70;53.20
63219;DHT22;49320;52.512;13.448;2023-04-24T09:16:59;21.70;53.60
63219;DHT22;49320;52.512;13.448;2023-04-24T09:19:26;21.80;53.20
63219;DHT22;49320;52.512;13.448;2023-04-24T09:21:53;21.90;53.50
63219;DHT22;49320;52.512;13.448;2023-04-24T09:24:21;22.00;53.50
63219;DHT22;49320;52.512;13.448;2023-04-24T09:26:55;22.00;53.40
63219;DHT22;49320;52.512;13.448;2023-04-24T09:29:28;22.10;53.40
63219;DHT22;49320;52.512;13.448;2023-04-24T09:31:55;22.10;53.60
63219;DHT22;49320;52.512;13.448;2023-04-24T09:34:24;22.10;53.20
63219;DHT22;49320;52.512;13.448;2023-04-24T09:36:53;22.20;53.20
63219;DHT22;49320;52.512;13.448;2023-04-24T09:39:21;22.20;53.40
63219;DHT22;49320;52.512;13.448;2023-04-24T09:41:55;22.30;53.00
63219;DHT22;49320;52.512;13.448;2023-04-24T09:44:27;22.40;52.40
63219;DHT22;49320;52.512;13.448;2023-04-24T09:46:56;22.50;52.40
63219;DHT22;49320;52.512;13.448;2023-04-24T09:49:26;22.40;52.60
63219;DHT22;49320;52.512;13.448;2023-04-24T09:52:05;22.50;52.50
63219;DHT22;49320;52.512;13.448;2023-04-24T09:54:36;22.50;52.00
63219;DHT22;49320;52.512;13.448;2023-04-24T09:57:03;22.50;52.40
63219;DHT22;49320;52.512;13.448;2023-04-24T09:59:31;22.60;52.30
63219;DHT22;49320;52.512;13.448;2023-04-24T10:02:00;22.60;52.30
63219;DHT22;49320;52.512;13.448;2023-04-24T10:04:28;22.60;52.30
63219;DHT22;49320;52.512;13.448;2023-04-24T10:06:57;22.60;52.20
63219;DHT22;49320;52.512;13.448;2023-04-24T10:09:26;22.60;52.10
63219;DHT22;49320;52.512;13.448;2023-04-24T10:11:54;22.70;51.90
63219;DHT22;49320;52.512;13.448;2023-04-24T10:14:23;22.70;51.70
63219;DHT22;49320;52.512;13.448;2023-04-24T10:16:53;22.70;51.40
63219;DHT22;49320;52.512;13.448;2023-04-24T10:19:24;22.70;51.40
63219;DHT22;49320;52.512;13.448;2023-04-24T10:21:52;22.80;51.70
63219;DHT22;49320;52.512;13.448;2023-04-24T10:24:21;22.80;51.00
63219;DHT22;49320;52.512;13.448;2023-04-24T10:26:48;22.90;51.80
63219;DHT22;49320;52.512;13.448;2023-04-24T10:29:18;22.90;51.50
63219;DHT22;49320;52.512;13.448;2023-04-24T10:31:45;22.90;51.30
63219;DHT22;49320;52.512;13.448;2023-04-24T10:34:15;23.00;51.40
63219;DHT22;49320;52.512;13.448;2023-04-24T10:36:52;23.80;51.40
63219;DHT22;49320;52.512;13.448;2023-04-24T10:39:24;23.10;50.60
63219;DHT22;49320;52.512;13.448;2023-04-24T10:41:54;23.10;51.10
63219;DHT22;49320;52.512;13.448;2023-04-24T10:44:24;23.20;50.70
63219;DHT22;49320;52.512;13.448;2023-04-24T10:46:55;23.20;50.70
63219;DHT22;49320;52.512;13.448;2023-04-24T10:49:30;23.20;50.40
63219;DHT22;49320;52.512;13.448;2023-04-24T10:52:03;23.30;50.10
63219;DHT22;49320;52.512;13.448;2023-04-24T10:54:45;23.20;50.10
63219;DHT22;49320;52.512;13.448;2023-04-24T10:59:47;23.10;50.00
63219;DHT22;49320;52.512;13.448;2023-04-24T11:02:15;23.00;50.30
63219;DHT22;49320;52.512;13.448;2023-04-24T11:04:43;23.00;50.80
63219;DHT22;49320;52.512;13.448;2023-04-24T11:07:11;22.90;50.40
63219;DHT22;49320;52.512;13.448;2023-04-24T11:09:38;22.90;50.30
63219;DHT22;49320;52.512;13.448;2023-04-24T11:12:10;22.80;50.40
63219;DHT22;49320;52.512;13.448;2023-04-24T11:17:37;22.80;49.80
63219;DHT22;49320;52.512;13.448;2023-04-24T11:20:07;22.80;50.00
63219;DHT22;49320;52.512;13.448;2023-04-24T11:22:54;22.90;49.30
63219;DHT22;49320;52.512;13.448;2023-04-24T11:25:22;22.90;50.30
63219;DHT22;49320;52.512;13.448;2023-04-24T11:27:49;22.90;50.20
63219;DHT22;49320;52.512;13.448;2023-04-24T11:30:19;23.00;50.10
63219;DHT22;49320;52.512;13.448;2023-04-24T11:32:53;23.00;50.10
63219;DHT22;49320;52.512;13.448;2023-04-24T11:35:21;23.10;49.70
63219;DHT22;49320;52.512;13.448;2023-04-24T11:37:52;23.00;49.70
63219;DHT22;49320;52.512;13.448;2023-04-24T11:40:23;23.00;50.10
63219;DHT22;49320;52.512;13.448;2023-04-24T11:42:53;22.90;49.70
63219;DHT22;49320;52.512;13.448;2023-04-24T11:45:25;22.90;50.10
63219;DHT22;49320;52.512;13.448;2023-04-24T11:47:56;22.70;51.10
63219;DHT22;49320;52.512;13.448;2023-04-24T11:50:26;22.50;51.50
63219;DHT22;49320;52.512;13.448;2023-04-24T11:52:54;22.40;51.50
63219;DHT22;49320;52.512;13.448;2023-04-24T11:55:23;22.20;52.10
63219;DHT22;49320;52.512;13.448;2023-04-24T11:57:52;21.90;52.20
63219;DHT22;49320;52.512;13.448;2023-04-24T12:00:28;21.70;52.40
63219;DHT22;49320;52.512;13.448;2023-04-24T12:03:10;21.80;53.10
63219;DHT22;49320;52.512;13.448;2023-04-24T12:05:39;21.70;53.80
63219;DHT22;49320;52.512;13.448;2023-04-24T12:08:07;21.60;53.00
63219;DHT22;49320;52.512;13.448;2023-04-24T12:10:35;21.60;53.40
63219;DHT22;49320;52.512;13.448;2023-04-24T12:13:02;21.60;53.50
63219;DHT22;49320;52.512;13.448;2023-04-24T12:15:29;21.50;53.70
63219;DHT22;49320;52.512;13.448;2023-04-24T12:17:56;21.50;53.80
63219;DHT22;49320;52.512;13.448;2023-04-24T12:20:26;21.60;53.80
63219;DHT22;49320;52.512;13.448;2023-04-24T12:22:59;21.50;53.80
63219;DHT22;49320;52.512;13.448;2023-04-24T12:25:31;21.50;53.80
63219;DHT22;49320;52.512;13.448;2023-04-24T12:30:35;21.50;53.70
63219;DHT22;49320;52.512;13.448;2023-04-24T12:33:06;21.60;53.50
63219;DHT22;49320;52.512;13.448;2023-04-24T12:35:33;21.60;53.50
63219;DHT22;49320;52.512;13.448;2023-04-24T12:38:10;22.20;53.60
63219;DHT22;49320;52.512;13.448;2023-04-24T12:40:40;21.70;53.00
63219;DHT22;49320;52.512;13.448;2023-04-24T12:43:15;21.70;52.80
63219;DHT22;49320;52.512;13.448;2023-04-24T12:45:48;21.70;52.30
63219;DHT22;49320;52.512;13.448;2023-04-24T12:48:14;21.70;52.10
63219;DHT22;49320;52.512;13.448;2023-04-24T12:50:42;21.90;51.10
63219;DHT22;49320;52.512;13.448;2023-04-24T12:53:12;21.70;51.50
63219;DHT22;49320;52.512;13.448;2023-04-24T12:55:40;22.00;51.30
63219;DHT22;49320;52.512;13.448;2023-04-24T12:58:07;22.10;50.70
63219;DHT22;49320;52.512;13.448;2023-04-24T13:00:34;22.10;50.20
63219;DHT22;49320;52.512;13.448;2023-04-24T13:03:01;22.20;49.50
63219;DHT22;49320;52.512;13.448;2023-04-24T13:05:29;22.30;49.20
63219;DHT22;49320;52.512;13.448;2023-04-24T13:07:57;22.40;49.20
63219;DHT22;49320;52.512;13.448;2023-04-24T13:10:24;22.40;48.80
63219;DHT22;49320;52.512;13.448;2023-04-24T13:12:51;22.60;48.60
63219;DHT22;49320;52.512;13.448;2023-04-24T13:15:17;22.60;48.00
63219;DHT22;49320;52.512;13.448;2023-04-24T13:17:44;22.70;47.50
63219;DHT22;49320;52.512;13.448;2023-04-24T13:20:11;22.80;47.00
63219;DHT22;49320;52.512;13.448;2023-04-24T13:22:38;22.80;47.30
63219;DHT22;49320;52.512;13.448;2023-04-24T13:25:05;22.80;46.60
63219;DHT22;49320;52.512;13.448;2023-04-24T13:27:33;22.90;46.40
63219;DHT22;49320;52.512;13.448;2023-04-24T13:34:56;23.20;45.40
63219;DHT22;49320;52.512;13.448;2023-04-24T13:39:50;23.30;44.60
63219;DHT22;49320;52.512;13.448;2023-04-24T13:42:18;23.40;43.40
63219;DHT22;49320;52.512;13.448;2023-04-24T13:44:45;23.30;44.20
63219;DHT22;49320;52.512;13.448;2023-04-24T13:47:12;23.30;44.40
63219;DHT22;49320;52.512;13.448;2023-04-24T13:49:39;23.30;44.20
63219;DHT22;49320;52.512;13.448;2023-04-24T13:52:07;23.10;44.00
63219;DHT22;49320;52.512;13.448;2023-04-24T13:54:34;23.20;43.70
63219;DHT22;49320;52.512;13.448;2023-04-24T13:57:01;23.10;43.70
63219;DHT22;49320;52.512;13.448;2023-04-24T13:59:29;23.10;43.80
63219;DHT22;49320;52.512;13.448;2023-04-24T14:01:56;23.10;43.80
63219;DHT22;49320;52.512;13.448;2023-04-24T14:04:23;23.10;43.90
63219;DHT22;49320;52.512;13.448;2023-04-24T14:06:52;23.10;43.40
63219;DHT22;49320;52.512;13.448;2023-04-24T14:09:19;23.10;43.50
63219;DHT22;49320;52.512;13.448;2023-04-24T14:11:46;23.10;43.40
63219;DHT22;49320;52.512;13.448;2023-04-24T14:14:13;23.10;41.60
63219;DHT22;49320;52.512;13.448;2023-04-24T14:16:40;23.10;43.10
63219;DHT22;49320;52.512;13.448;2023-04-24T14:19:07;23.10;42.90
63219;DHT22;49320;52.512;13.448;2023-04-24T14:21:33;23.00;43.10
63219;DHT22;49320;52.512;13.448;2023-04-24T14:24:00;23.00;43.30
63219;DHT22;49320;52.512;13.448;2023-04-24T14:26:27;22.90;43.00
63219;DHT22;49320;52.512;13.448;2023-04-24T14:28:54;23.00;42.90
63219;DHT22;49320;52.512;13.448;2023-04-24T14:31:39;22.80;42.50
63219;DHT22;49320;52.512;13.448;2023-04-24T14:34:06;22.80;43.00
63219;DHT22;49320;52.512;13.448;2023-04-24T14:36:33;22.70;42.90
63219;DHT22;49320;52.512;13.448;2023-04-24T14:39:00;22.70;43.00
63219;DHT22;49320;52.512;13.448;2023-04-24T14:41:29;22.70;43.00
63219;DHT22;49320;52.512;13.448;2023-04-24T14:43:56;22.60;42.80
63219;DHT22;49320;52.512;13.448;2023-04-24T14:46:23;22.60;42.10
63219;DHT22;49320;52.512;13.448;2023-04-24T14:48:50;22.70;42.40
63219;DHT22;49320;52.512;13.448;2023-04-24T14:51:17;22.60;42.20
63219;DHT22;49320;52.512;13.448;2023-04-24T14:53:44;22.50;42.00
63219;DHT22;49320;52.512;13.448;2023-04-24T14:56:14;22.50;42.40
63219;DHT22;49320;52.512;13.448;2023-04-24T14:58:41;22.40;42.50
63219;DHT22;49320;52.512;13.448;2023-04-24T15:01:08;22.40;42.60
63219;DHT22;49320;52.512;13.448;2023-04-24T15:03:35;22.40;42.70
63219;DHT22;49320;52.512;13.448;2023-04-24T15:06:02;22.40;42.20
63219;DHT22;49320;52.512;13.448;2023-04-24T15:08:29;22.40;42.10
63219;DHT22;49320;52.512;13.448;2023-04-24T15:10:56;22.40;42.10
63219;DHT22;49320;52.512;13.448;2023-04-24T15:13:23;22.30;42.50
63219;DHT22;49320;52.512;13.448;2023-04-24T15:15:50;22.30;42.30
63219;DHT22;49320;52.512;13.448;2023-04-24T15:18:16;22.30;42.50
63219;DHT22;49320;52.512;13.448;2023-04-24T15:20:43;22.30;42.70
63219;DHT22;49320;52.512;13.448;2023-04-24T15:23:10;22.20;42.70
63219;DHT22;49320;52.512;13.448;2023-04-24T15:25:37;22.20;42.70
63219;DHT22;49320;52.512;13.448;2023-04-24T15:28:05;22.10;42.50
63219;DHT22;49320;52.512;13.448;2023-04-24T15:30:32;22.10;42.50
63219;DHT22;49320;52.512;13.448;2023-04-24T15:33:00;22.00;42.70
63219;DHT22;49320;52.512;13.448;2023-04-24T15:35:28;22.00;42.70
63219;DHT22;49320;52.512;13.448;2023-04-24T15:37:55;22.00;42.60
63219;DHT22;49320;52.512;13.448;2023-04-24T15:40:22;22.00;42.50
63219;DHT22;49320;52.512;13.448;2023-04-24T15:42:48;22.00;42.40
63219;DHT22;49320;52.512;13.448;2023-04-24T15:45:15;22.30;42.60
63219;DHT22;49320;52.512;13.448;2023-04-24T15:47:44;21.80;42.30
63219;DHT22;49320;52.512;13.448;2023-04-24T15:50:13;21.60;41.20
63219;DHT22;49320;52.512;13.448;2023-04-24T15:52:43;21.60;42.60
63219;DHT22;49320;52.512;13.448;2023-04-24T15:55:10;21.50;42.30
63219;DHT22;49320;52.512;13.448;2023-04-24T15:57:37;21.30;41.70